AirNav   Everest Fuels
 
 1598 users online  

MU66 Winfield Manor Heliport
Winfield, Missouri, USA

GOING TO WINFIELD?


FAA INFORMATION EFFECTIVE 17 JUNE 2021

Location

FAA Identifier: MU66
Lat/Long: 39-01-47.4300N 090-49-23.7500W
39-01.790500N 090-49.395833W
39.0298417,-90.8232639
(estimated)
Elevation: 732 ft. / 223 m (estimated)
Variation: 01E (2000)
From city: 3 miles SE of WINFIELD, MO
Time zone: UTC -5 (UTC -6 during Standard Time)
Zip code: 63389

Heliport Operations

Heliport use: Private use. Permission required prior to landing
Activation date: 10/1986
Control tower: no
ARTCC: KANSAS CITY CENTER
FSS: SAINT LOUIS FLIGHT SERVICE STATION
NOTAMs facility: FDC (NOTAM-D service not available)
Attendance: UNATNDD
Wind indicator: yes
Segmented circle: no
Lights: FOR FLOOD LGTS CALL 314-553-2225.
Beacon: white-green-yellow (heliport)
FOR ROTG BCN CALL 314-731-4517.

Heliport Communications

WX ASOS at SET (19 nm E): 118.075 (636-250-4590)

Nearby radio navigation aids

VOR radial/distance  VOR name  Freq  Var
STLr302/18.9ST LOUIS VORTAC117.4001E
FTZr014/21.3FORISTELL VORTAC110.8005E

 
NDB name  Hdg/Dist  Freq  Var  ID
CIVIC MEMORIAL284/36.726301WCVM -.-. ...- --

Heliport Services

Runway Information

Helipad H1

Dimensions: 50 x 50 ft. / 15 x 15 m
Surface: concrete
Runway edge lights: FLD
Latitude: 39-01.790500N
Longitude: 090-49.395833W
Elevation: 732.0 ft.
Traffic pattern: leftleft

Heliport Ownership and Management from official FAA records

Ownership: Privately-owned
Owner: EMERSON ELECTRIC CO.
8000 W. FLORISSANT
ST LOUIS, MO 63136
Phone (314) 553-2225
Manager: MOLLY LINDSAY
RR 1, BOX 128
WINFIELD, MO 63389
Phone (314) 553-3900

Additional Remarks

A52-H1 TREES 80' WEST AND WIRES 400' NORTH.
FOR CD CTC ST LOUIS APCH AT 314-890-1018.

Instrument Procedures

There are no published instrument procedures at MU66.

Some nearby airports with instrument procedures:

KSET - St Charles County Smartt Airport (19 nm E)
1H0 - Creve Coeur Airport (23 nm SE)
KSUS - Spirit of St Louis Airport (23 nm S)
KSTL - St Louis Lambert International Airport (27 nm SE)
H19 - Bowling Green Municipal Airport (27 nm NW)
 
Loc | Ops | Rwys | IFR | FBO | Links
Com | Nav | Svcs | Stats | Notes
Area around MU66 (Winfield Manor Heliport)
 
Road maps at: MapQuest Bing Google
 
Aerial photo
No photo
 
Sectional chart

 
Airport distance calculator
Flying to Winfield Manor Heliport? Find the distance to fly.

From to MU66

Sunrise and sunset
Times for 21-Jun-2021
 Local
(UTC-5)
 Zulu
(UTC)
Morning civil twilight05:0610:06
Sunrise05:3910:39
Sunset20:3101:31
Evening civil twilight21:0402:04

Current date and time
Zulu (UTC)  21-Jun-2021 15:37:42
Local (UTC-5)  21-Jun-2021 10:37:42
 
METAR
KSET 
19nm E 
211454Z AUTO 31007G16KT 10SM FEW033 21/14 A2987 RMK AO2 SLP111 T02110139 51042
KSUS 
24nm S 
211454Z 28007KT 10SM FEW028 SCT120 20/15 A2989 RMK AO2 SLP114 T02000150 51044
KSTL 
27nm SE 
211451Z 31011G18KT 10SM SCT026 SCT070 OVC130 21/14 A2989 RMK AO2 SLP110 T02110139 51045
KFYG 
28nm S 
211515Z AUTO 33008KT 10SM FEW023 SCT033 20/17 A2989 RMK AO2
KPPQ 
36nm N 
211515Z AUTO 33012KT 10SM SCT030 SCT035 SCT120 20/14 A2988 RMK AO2 T01990143
KALN 
38nm E 
211515Z 32012KT 10SM BKN026 21/16 A2988
TAF
KSUS 
24nm S 
211302Z 2113/2212 30012G18KT P6SM OVC020 FM211400 32012KT P6SM OVC040 FM211600 33012KT P6SM VCSH OVC060 FM212000 32009KT P6SM VCSH OVC070 FM212300 33009KT P6SM BKN100
KSTL 
27nm SE 
211302Z 2113/2218 33012G19KT P6SM OVC025 FM211400 32012KT P6SM OVC040 FM211600 33012KT P6SM VCSH OVC060 FM212000 32009KT P6SM VCSH OVC070 FM212300 33009KT P6SM BKN100 FM221300 00000KT P6SM SKC
NOTAMs
Click for the latest NOTAMs
NOTAMs are issued by the DoD/FAA and will open in a separate window not controlled by AirNav.

 

 
 

Would you like to see your business listed on this page?

 If your business provides an interesting product or service to pilots, flight crews, aircraft, or users of the Winfield Manor Heliport, you should consider listing it here.  To start the listing process, click on the button below
 
Add a business
 

Other Pages about Winfield Manor Heliport

Update a link
 
Copyright © AirNav, LLC. All rights reserved. Privacy Policy  Contact